createdAt,value
2018-02-11T00:00:16.578Z,94916
2018-02-11T00:02:44.559Z,94922
2018-02-11T00:05:12.517Z,94922
2018-02-11T00:07:40.478Z,94917
2018-02-11T00:10:08.457Z,94918
2018-02-11T00:12:36.415Z,94915
2018-02-11T00:15:04.497Z,94918
2018-02-11T00:17:32.453Z,94913
2018-02-11T00:20:00.351Z,94908
2018-02-11T00:22:28.298Z,94904
2018-02-11T00:24:56.278Z,94897
2018-02-11T00:27:24.238Z,94891
2018-02-11T00:29:52.118Z,94888
2018-02-11T00:32:20.078Z,94894
2018-02-11T00:34:47.938Z,94887
2018-02-11T00:37:15.828Z,94884
2018-02-11T00:39:43.779Z,94891
2018-02-11T00:42:11.738Z,94887
2018-02-11T00:44:39.717Z,94882
2018-02-11T00:47:07.679Z,94880
2018-02-11T00:49:35.636Z,94879
2018-02-11T00:52:03.618Z,94875
2018-02-11T00:54:31.488Z,94879
2018-02-11T00:56:59.441Z,94870
2018-02-11T00:59:27.418Z,94868
2018-02-11T01:01:55.398Z,94874
2018-02-11T01:04:23.358Z,94864
2018-02-11T01:06:51.338Z,94864
2018-02-11T01:09:19.298Z,94864
2018-02-11T01:11:47.248Z,94859
2018-02-11T01:14:15.161Z,94860
2018-02-11T01:16:43.086Z,94860
2018-02-11T01:19:11.078Z,94850
2018-02-11T01:21:39.038Z,94850
2018-02-11T01:24:06.928Z,94852
2018-02-11T01:26:34.856Z,94847
2018-02-11T01:29:02.838Z,94848
2018-02-11T01:31:30.818Z,94847
2018-02-11T01:33:58.779Z,94848
2018-02-11T01:36:26.718Z,94844
2018-02-11T01:38:54.719Z,94837
2018-02-11T01:41:22.588Z,94832
2018-02-11T01:43:50.562Z,94829
2018-02-11T01:46:18.518Z,94827
2018-02-11T01:48:46.472Z,94830
2018-02-11T01:51:14.445Z,94826
2018-02-11T01:53:42.440Z,94829
2018-02-11T01:56:10.407Z,94822
2018-02-11T01:58:38.479Z,94825
2018-02-11T02:01:06.538Z,94827
2018-02-11T02:03:34.526Z,94824
2018-02-11T02:06:02.479Z,94818
2018-02-11T02:08:30.327Z,94819
2018-02-11T02:10:58.318Z,94826
2018-02-11T02:13:26.196Z,94819
2018-02-11T02:15:54.128Z,94821
2018-02-11T02:18:22.028Z,94823
2018-02-11T02:20:49.978Z,94819
2018-02-11T02:23:17.958Z,94819
2018-02-11T02:25:45.921Z,94815
2018-02-11T02:28:13.807Z,94818
2018-02-11T02:30:41.767Z,94813
2018-02-11T02:33:09.708Z,94813
2018-02-11T02:35:37.598Z,94806
2018-02-11T02:38:05.558Z,94809
2018-02-11T02:40:33.518Z,94804
2018-02-11T02:43:01.409Z,94802
2018-02-11T02:45:29.358Z,94797
2018-02-11T02:47:57.314Z,94797
2018-02-11T02:50:25.282Z,94793
2018-02-11T02:52:53.259Z,94785
2018-02-11T02:55:21.238Z,94780
2018-02-11T02:57:49.200Z,94775
2018-02-11T03:00:17.143Z,94771
2018-02-11T03:02:45.038Z,94770
2018-02-11T03:05:13.018Z,94768
2018-02-11T03:07:40.978Z,94765
2018-02-11T03:10:08.938Z,94766
2018-02-11T03:12:36.818Z,94762
2018-02-11T03:15:04.778Z,94763
2018-02-11T03:17:32.758Z,94756
2018-02-11T03:20:00.718Z,94752
2018-02-11T03:22:28.678Z,94749
2018-02-11T03:24:56.568Z,94749
2018-02-11T03:27:24.517Z,94743
2018-02-11T03:29:52.498Z,94746
2018-02-11T03:32:20.458Z,94747
2018-02-11T03:34:48.418Z,94742
2018-02-11T03:37:16.350Z,94734
2018-02-11T03:39:44.155Z,94738
2018-02-11T03:42:12.138Z,94728
2018-02-11T03:44:40.098Z,94727
2018-02-11T03:47:07.993Z,94726
2018-02-11T03:49:36.658Z,94723
2018-02-11T03:52:04.718Z,94715
2018-02-11T03:54:32.698Z,94710
2018-02-11T03:57:00.636Z,94706
2018-02-11T03:59:28.618Z,94704
2018-02-11T04:01:56.598Z,94701
2018-02-11T04:04:24.469Z,94701
2018-02-11T04:06:52.311Z,94698
2018-02-11T04:09:20.298Z,94695
2018-02-11T04:11:48.260Z,94701
2018-02-11T04:14:16.149Z,94695
2018-02-11T04:16:44.008Z,94695
2018-02-11T04:19:11.967Z,94688
2018-02-11T04:21:39.943Z,94683
2018-02-11T04:24:07.898Z,94679
2018-02-11T04:26:35.788Z,94678
2018-02-11T04:29:03.856Z,94675
2018-02-11T04:31:31.789Z,94675
2018-02-11T04:33:59.777Z,94680
2018-02-11T04:36:27.738Z,94680
2018-02-11T04:38:55.618Z,94680
2018-02-11T04:41:23.578Z,94679
2018-02-11T04:43:51.558Z,94682
2018-02-11T04:46:19.625Z,94682
2018-02-11T04:48:47.508Z,94682
2018-02-11T04:51:15.458Z,94677
2018-02-11T04:53:43.417Z,94681
2018-02-11T04:56:11.398Z,94685
2018-02-11T04:58:39.240Z,94681
2018-02-11T05:01:07.117Z,94683
2018-02-11T05:03:35.097Z,94683
2018-02-11T05:06:03.061Z,94679
2018-02-11T05:08:30.937Z,94682
2018-02-11T05:10:58.899Z,94681
2018-02-11T05:13:26.858Z,94682
2018-02-11T05:15:54.843Z,94690
2018-02-11T05:18:23.618Z,94688
2018-02-11T05:20:51.598Z,94691
2018-02-11T05:23:19.557Z,94684
2018-02-11T05:25:47.512Z,94681
2018-02-11T05:28:15.908Z,94682
2018-02-11T05:30:43.788Z,94678
2018-02-11T05:33:11.737Z,94672
2018-02-11T05:35:39.718Z,94675
2018-02-11T05:38:07.660Z,94669
2018-02-11T05:40:35.537Z,94674
2018-02-11T05:43:03.498Z,94677
2018-02-11T05:45:31.388Z,94678
2018-02-11T05:48:00.057Z,94678
2018-02-11T05:50:28.038Z,94679
2018-02-11T05:52:55.908Z,94675
2018-02-11T05:55:23.676Z,94675
2018-02-11T05:57:51.637Z,94670
2018-02-11T06:00:19.597Z,94662
2018-02-11T06:02:47.553Z,94657
2018-02-11T06:05:15.637Z,94661
2018-02-11T06:07:43.518Z,94659
2018-02-11T06:10:11.477Z,94660
2018-02-11T06:12:39.437Z,94664
2018-02-11T06:15:07.364Z,94658
2018-02-11T06:17:36.082Z,94664
2018-02-11T06:20:04.288Z,94663
2018-02-11T06:22:33.059Z,94660
2018-02-11T06:25:00.917Z,94666
2018-02-11T06:27:29.097Z,94662
2018-02-11T06:29:57.078Z,94662
2018-02-11T06:32:25.037Z,94664
2018-02-11T06:34:52.991Z,94661
2018-02-11T06:37:20.977Z,94655
2018-02-11T06:39:48.847Z,94661
2018-02-11T06:42:16.818Z,94659
2018-02-11T06:44:44.777Z,94653
2018-02-11T06:47:12.758Z,94654
2018-02-11T06:49:40.718Z,94644
2018-02-11T06:52:08.668Z,94646
2018-02-11T06:54:36.568Z,94643
2018-02-11T06:57:04.412Z,94644
2018-02-11T06:59:32.378Z,94647
2018-02-11T07:02:00.339Z,94649
2018-02-11T07:04:28.317Z,94649
2018-02-11T07:06:56.298Z,94640
2018-02-11T07:09:24.176Z,94636
2018-02-11T07:11:52.118Z,94634
2018-02-11T07:14:20.010Z,94625
2018-02-11T07:16:47.957Z,94625
2018-02-11T07:19:15.946Z,94624
2018-02-11T07:21:43.900Z,94621
2018-02-11T07:24:11.758Z,94616
2018-02-11T07:26:39.615Z,94623
2018-02-11T07:29:07.598Z,94617
2018-02-11T07:31:35.558Z,94621
2018-02-11T07:34:03.521Z,94614
2018-02-11T07:36:31.499Z,94611
2018-02-11T07:38:59.478Z,94610
2018-02-11T07:41:27.351Z,94610
2018-02-11T07:43:55.302Z,94608
2018-02-11T07:46:23.261Z,94610
2018-02-11T07:48:51.168Z,94608
2018-02-11T07:51:19.120Z,94606
2018-02-11T07:53:46.988Z,94608
2018-02-11T07:56:14.940Z,94619
2018-02-11T07:58:42.918Z,94612
2018-02-11T08:01:10.878Z,94614
2018-02-11T08:03:38.887Z,94609
2018-02-11T08:06:07.538Z,94605
2018-02-11T08:08:35.518Z,94610
2018-02-11T08:11:03.477Z,94605
2018-02-11T08:13:31.327Z,94600
2018-02-11T08:15:59.311Z,94596
2018-02-11T08:18:27.277Z,94589
2018-02-11T08:20:55.138Z,94591
2018-02-11T08:23:23.018Z,94575
2018-02-11T08:25:50.978Z,94573
2018-02-11T08:28:18.935Z,94577
2018-02-11T08:30:46.834Z,94576
2018-02-11T08:33:14.778Z,94566
2018-02-11T08:35:42.757Z,94561
2018-02-11T08:38:10.719Z,94555
2018-02-11T08:40:38.581Z,94546
2018-02-11T08:43:06.557Z,94549
2018-02-11T08:45:34.509Z,94545
2018-02-11T08:48:02.517Z,94539
2018-02-11T08:50:30.466Z,94539
2018-02-11T08:52:58.438Z,94538
2018-02-11T08:55:26.394Z,94532
2018-02-11T08:57:54.353Z,94535
2018-02-11T09:00:22.345Z,94527
2018-02-11T09:02:50.290Z,94523
2018-02-11T09:05:18.259Z,94524
2018-02-11T09:07:46.246Z,94512
2018-02-11T09:10:14.217Z,94505
2018-02-11T09:12:42.178Z,94497
2018-02-11T09:15:10.132Z,94502
2018-02-11T09:17:38.119Z,94496
2018-02-11T09:20:06.098Z,94500
2018-02-11T09:22:33.946Z,94503
2018-02-11T09:25:02.018Z,94498
2018-02-11T09:27:29.996Z,94497
2018-02-11T09:29:57.957Z,94499
2018-02-11T09:32:25.916Z,94485
2018-02-11T09:34:53.898Z,94488
2018-02-11T09:37:21.747Z,94485
2018-02-11T09:39:49.738Z,94484
2018-02-11T09:42:17.605Z,94481
2018-02-11T09:44:45.578Z,94476
2018-02-11T09:47:13.429Z,94481
2018-02-11T09:49:41.378Z,94475
2018-02-11T09:52:09.356Z,94468
2018-02-11T09:54:37.321Z,94462
2018-02-11T09:57:05.219Z,94457
2018-02-11T09:59:33.178Z,94451
2018-02-11T10:02:01.138Z,94441
2018-02-11T10:04:29.866Z,94451
2018-02-11T10:06:58.618Z,94452
2018-02-11T10:09:26.469Z,94446
2018-02-11T10:11:54.460Z,94443
2018-02-11T10:14:22.417Z,94440
2018-02-11T10:16:50.398Z,94436
2018-02-11T10:19:18.239Z,94438
2018-02-11T10:21:46.218Z,94423
2018-02-11T10:24:14.206Z,94428
2018-02-11T10:26:42.158Z,94423
2018-02-11T10:29:10.116Z,94427
2018-02-11T10:31:38.107Z,94428
2018-02-11T10:34:06.078Z,94437
2018-02-11T10:36:34.038Z,94415
2018-02-11T10:39:01.904Z,94410
2018-02-11T10:41:29.857Z,94404
2018-02-11T10:43:57.847Z,94394
2018-02-11T10:46:25.822Z,94395
2018-02-11T10:48:53.590Z,94393
2018-02-11T10:51:21.453Z,94389
2018-02-11T10:53:49.287Z,94393
2018-02-11T10:56:17.278Z,94385
2018-02-11T10:58:45.238Z,94373
2018-02-11T11:01:13.098Z,94368
2018-02-11T11:03:41.009Z,94354
2018-02-11T11:06:09.747Z,94354
2018-02-11T11:08:37.741Z,94347
2018-02-11T11:11:05.698Z,94341
2018-02-11T11:13:33.677Z,94347
2018-02-11T11:16:01.641Z,94336
2018-02-11T11:18:29.598Z,94333
2018-02-11T11:20:57.608Z,94329
2018-02-11T11:23:26.344Z,94325
2018-02-11T11:25:54.317Z,94329
2018-02-11T11:28:22.307Z,94324
2018-02-11T11:30:50.278Z,94319
2018-02-11T11:33:18.238Z,94324
2018-02-11T11:35:46.320Z,94325
2018-02-11T11:38:14.262Z,94314
2018-02-11T11:40:42.218Z,94315
2018-02-11T11:43:10.418Z,94306
2018-02-11T11:45:38.398Z,94294
2018-02-11T11:48:06.341Z,94286
2018-02-11T11:50:34.117Z,94288
2018-02-11T11:53:02.095Z,94281
2018-02-11T11:55:29.999Z,94273
2018-02-11T11:57:58.645Z,94273
2018-02-11T12:00:26.437Z,94272
2018-02-11T12:02:54.378Z,94258
2018-02-11T12:05:22.438Z,94263
2018-02-11T12:07:50.254Z,94262
2018-02-11T12:10:18.881Z,94261
2018-02-11T12:12:46.640Z,94264
2018-02-11T12:15:14.930Z,94260
2018-02-11T12:17:42.878Z,94256
2018-02-11T12:20:10.749Z,94258
2018-02-11T12:22:38.722Z,94251
2018-02-11T12:25:06.478Z,94246
2018-02-11T12:27:34.268Z,94241
2018-02-11T12:30:02.218Z,94231
2018-02-11T12:32:30.115Z,94224
2018-02-11T12:34:57.988Z,94235
2018-02-11T12:37:25.917Z,94229
2018-02-11T12:39:53.678Z,94229
2018-02-11T12:42:21.864Z,94233
2018-02-11T12:44:49.704Z,94231
2018-02-11T12:47:17.618Z,94233
2018-02-11T12:49:45.577Z,94225
2018-02-11T12:52:14.457Z,94221
2018-02-11T12:54:42.235Z,94218
2018-02-11T12:57:10.197Z,94217
2018-02-11T12:59:38.157Z,94209
2018-02-11T13:02:06.138Z,94202
2018-02-11T13:04:34.004Z,94197
2018-02-11T13:07:01.872Z,94194
2018-02-11T13:09:29.750Z,94198
2018-02-11T13:11:57.606Z,94190
2018-02-11T13:14:25.487Z,94192
2018-02-11T13:16:53.356Z,94196
2018-02-11T13:19:22.845Z,94192
2018-02-11T13:21:50.785Z,94190
2018-02-11T13:24:18.756Z,94189
2018-02-11T13:26:46.746Z,94186
2018-02-11T13:29:14.718Z,94184
2018-02-11T13:31:42.463Z,94178
2018-02-11T13:34:10.439Z,94175
2018-02-11T13:36:38.328Z,94174
2018-02-11T13:39:06.278Z,94177
2018-02-11T13:41:34.137Z,94171
2018-02-11T13:44:02.011Z,94175
2018-02-11T13:46:29.977Z,94173
2018-02-11T13:48:57.957Z,94170
2018-02-11T13:51:25.917Z,94171
2018-02-11T13:53:53.695Z,94168
2018-02-11T13:56:21.522Z,94166
2018-02-11T13:58:49.428Z,94163
2018-02-11T14:01:17.377Z,94154
2018-02-11T14:03:45.334Z,94158
2018-02-11T14:06:13.301Z,94154
2018-02-11T14:08:41.177Z,94152
2018-02-11T14:11:08.952Z,94153
2018-02-11T14:13:37.345Z,94156
2018-02-11T14:16:05.297Z,94154
2018-02-11T14:18:33.257Z,94144
2018-02-11T14:21:01.217Z,94142
2018-02-11T14:23:29.197Z,94139
2018-02-11T14:25:56.958Z,94131
2018-02-11T14:28:24.937Z,94127
2018-02-11T14:30:52.811Z,94134
2018-02-11T14:33:20.777Z,94125
2018-02-11T14:35:48.737Z,94135
2018-02-11T14:38:16.786Z,94129
2018-02-11T14:40:44.776Z,94128
2018-02-11T14:43:12.736Z,94130
2018-02-11T14:45:40.717Z,94127
2018-02-11T14:48:08.677Z,94131
2018-02-11T14:50:36.558Z,94128
2018-02-11T14:53:04.817Z,94132
2018-02-11T14:55:32.704Z,94128
2018-02-11T14:58:02.103Z,94128
2018-02-11T15:00:30.057Z,94121
2018-02-11T15:02:57.983Z,94113
2018-02-11T15:05:26.716Z,94117
2018-02-11T15:07:54.668Z,94116
2018-02-11T15:10:22.638Z,94121
2018-02-11T15:12:50.617Z,94119
2018-02-11T15:15:18.598Z,94123
2018-02-11T15:17:46.352Z,94119
2018-02-11T15:20:14.318Z,94105
2018-02-11T15:22:42.197Z,94107
2018-02-11T15:25:10.069Z,94107
2018-02-11T15:27:37.905Z,94104
2018-02-11T15:30:05.875Z,94106
2018-02-11T15:32:33.768Z,94105
2018-02-11T15:35:01.845Z,94101
2018-02-11T15:37:31.315Z,94099
2018-02-11T15:39:59.197Z,94098
2018-02-11T15:42:27.093Z,94099
2018-02-11T15:44:55.026Z,94102
2018-02-11T15:47:22.781Z,94103
2018-02-11T15:49:50.664Z,94111
2018-02-11T15:52:18.637Z,94111
2018-02-11T15:54:46.597Z,94113
2018-02-11T15:57:14.466Z,94116
2018-02-11T15:59:42.422Z,94118
2018-02-11T16:02:10.389Z,94126
2018-02-11T16:04:38.377Z,94127
2018-02-11T16:07:06.337Z,94134
2018-02-11T16:09:34.317Z,94130
2018-02-11T16:12:02.277Z,94127
2018-02-11T16:14:30.302Z,94119
2018-02-11T16:16:58.987Z,94127
2018-02-11T16:19:26.996Z,94120
2018-02-11T16:21:55.004Z,94123
2018-02-11T16:24:23.757Z,94131
2018-02-11T16:26:51.713Z,94136
2018-02-11T16:29:19.707Z,94145
2018-02-11T16:31:47.651Z,94147
2018-02-11T16:34:15.617Z,94136
2018-02-11T16:36:43.596Z,94132
2018-02-11T16:39:11.455Z,94128
2018-02-11T16:41:39.444Z,94128
2018-02-11T16:44:07.296Z,94119
2018-02-11T16:46:35.185Z,94125
2018-02-11T16:49:03.137Z,94126
2018-02-11T16:51:31.030Z,94134
2018-02-11T16:53:58.985Z,94137
2018-02-11T16:56:26.937Z,94133
2018-02-11T16:58:54.917Z,94135
2018-02-11T17:01:22.778Z,94129
2018-02-11T17:03:50.832Z,94137
2018-02-11T17:06:18.728Z,94138
2018-02-11T17:08:46.483Z,94135
2018-02-11T17:11:14.431Z,94134
2018-02-11T17:13:42.398Z,94134
2018-02-11T17:16:10.225Z,94133
2018-02-11T17:18:38.976Z,94138
2018-02-11T17:21:06.848Z,94138
2018-02-11T17:23:34.705Z,94145
2018-02-11T17:26:02.677Z,94142
2018-02-11T17:28:30.637Z,94135
2018-02-11T17:30:58.622Z,94130
2018-02-11T17:33:26.577Z,94129
2018-02-11T17:35:54.465Z,94122
2018-02-11T17:38:22.395Z,94111
2018-02-11T17:40:50.277Z,94103
2018-02-11T17:43:18.152Z,94116
2018-02-11T17:45:46.098Z,94134
2018-02-11T17:48:13.961Z,94118
2018-02-11T17:50:41.873Z,94112
2018-02-11T17:53:09.817Z,94121
2018-02-11T17:55:37.777Z,94121
2018-02-11T17:58:05.656Z,94121
2018-02-11T18:00:33.516Z,94123
2018-02-11T18:03:01.455Z,94119
2018-02-11T18:05:29.358Z,94121
2018-02-11T18:07:57.318Z,94128
2018-02-11T18:10:25.831Z,94136
2018-02-11T18:12:54.476Z,94136
2018-02-11T18:15:22.456Z,94137
2018-02-11T18:17:50.329Z,94134
2018-02-11T18:20:18.183Z,94132
2018-02-11T18:22:46.057Z,94128
2018-02-11T18:25:14.017Z,94135
2018-02-11T18:27:41.976Z,94140
2018-02-11T18:30:09.957Z,94143
2018-02-11T18:32:37.910Z,94148
2018-02-11T18:35:05.898Z,94148
2018-02-11T18:37:33.767Z,94151
2018-02-11T18:40:01.628Z,94145
2018-02-11T18:42:29.605Z,94147
2018-02-11T18:44:57.557Z,94150
2018-02-11T18:47:25.518Z,94148
2018-02-11T18:49:53.496Z,94145
2018-02-11T18:52:21.388Z,94146
2018-02-11T18:54:49.319Z,94143
2018-02-11T18:57:17.196Z,94147
2018-02-11T18:59:45.177Z,94143
2018-02-11T19:02:13.137Z,94147
2018-02-11T19:04:41.022Z,94153
2018-02-11T19:07:08.868Z,94161
2018-02-11T19:09:36.820Z,94165
2018-02-11T19:12:04.795Z,94164
2018-02-11T19:14:32.777Z,94168
2018-02-11T19:17:00.732Z,94167
2018-02-11T19:19:28.697Z,94171
2018-02-11T19:21:56.677Z,94169
2018-02-11T19:24:24.659Z,94163
2018-02-11T19:26:52.616Z,94163
2018-02-11T19:29:20.597Z,94166
2018-02-11T19:31:48.395Z,94166
2018-02-11T19:34:17.038Z,94176
2018-02-11T19:36:44.994Z,94181
2018-02-11T19:39:13.994Z,94184
2018-02-11T19:41:41.957Z,94187
2018-02-11T19:44:09.822Z,94186
2018-02-11T19:46:37.787Z,94196
2018-02-11T19:49:05.797Z,94198
2018-02-11T19:51:33.737Z,94207
2018-02-11T19:54:01.822Z,94219
2018-02-11T19:56:29.776Z,94221
2018-02-11T19:58:57.735Z,94225
2018-02-11T20:01:25.584Z,94225
2018-02-11T20:03:53.477Z,94227
2018-02-11T20:06:21.364Z,94238
2018-02-11T20:08:49.168Z,94239
2018-02-11T20:11:17.077Z,94232
2018-02-11T20:13:44.975Z,94244
2018-02-11T20:16:13.003Z,94242
2018-02-11T20:18:40.880Z,94252
2018-02-11T20:21:11.805Z,94270
2018-02-11T20:23:39.977Z,94277
2018-02-11T20:26:10.153Z,94273
2018-02-11T20:28:39.118Z,94282
2018-02-11T20:31:07.058Z,94287
2018-02-11T20:33:34.953Z,94297
2018-02-11T20:36:03.816Z,94293
2018-02-11T20:38:31.996Z,94287
2018-02-11T20:40:59.759Z,94293
2018-02-11T20:43:27.623Z,94301
2018-02-11T20:45:55.580Z,94306
2018-02-11T20:48:23.483Z,94306
2018-02-11T20:50:51.324Z,94304
2018-02-11T20:53:19.297Z,94309
2018-02-11T20:55:47.194Z,94309
2018-02-11T20:58:15.056Z,94310
2018-02-11T21:00:43.022Z,94309
2018-02-11T21:03:10.977Z,94302
2018-02-11T21:05:38.929Z,94312
2018-02-11T21:08:06.898Z,94316
2018-02-11T21:10:35.287Z,94313
2018-02-11T21:13:03.157Z,94316
2018-02-11T21:15:31.140Z,94322
2018-02-11T21:17:59.097Z,94318
2018-02-11T21:20:26.841Z,94314
2018-02-11T21:22:55.251Z,94323
2018-02-11T21:25:23.225Z,94323
2018-02-11T21:27:51.177Z,94319
2018-02-11T21:30:19.044Z,94324
2018-02-11T21:32:47.000Z,94327
2018-02-11T21:35:14.977Z,94326
2018-02-11T21:37:42.957Z,94335
2018-02-11T21:40:10.917Z,94343
2018-02-11T21:42:38.877Z,94344
2018-02-11T21:45:06.769Z,94349
2018-02-11T21:47:34.717Z,94351
2018-02-11T21:50:02.697Z,94352
2018-02-11T21:52:30.658Z,94353
2018-02-11T21:54:58.616Z,94351
2018-02-11T21:57:26.598Z,94350
2018-02-11T21:59:54.560Z,94349
2018-02-11T22:02:22.525Z,94347
2018-02-11T22:04:50.484Z,94352
2018-02-11T22:07:18.477Z,94359
2018-02-11T22:09:46.422Z,94364
2018-02-11T22:12:14.207Z,94366
2018-02-11T22:14:42.177Z,94371
2018-02-11T22:17:10.047Z,94364
2018-02-11T22:19:37.997Z,94368
2018-02-11T22:22:05.892Z,94377
2018-02-11T22:24:33.837Z,94372
2018-02-11T22:27:01.817Z,94381
2018-02-11T22:29:29.692Z,94379
2018-02-11T22:31:57.636Z,94372
2018-02-11T22:34:25.617Z,94381
2018-02-11T22:36:53.564Z,94385
2018-02-11T22:39:21.457Z,94376
2018-02-11T22:41:49.416Z,94379
2018-02-11T22:44:17.377Z,94382
2018-02-11T22:46:45.356Z,94379
2018-02-11T22:49:13.317Z,94379
2018-02-11T22:51:41.297Z,94374
2018-02-11T22:54:09.163Z,94374
2018-02-11T22:56:37.164Z,94368
2018-02-11T22:59:05.105Z,94368
2018-02-11T23:01:33.057Z,94367
2018-02-11T23:04:01.015Z,94372
2018-02-11T23:06:28.908Z,94369
2018-02-11T23:08:56.899Z,94365
2018-02-11T23:11:24.747Z,94362
2018-02-11T23:13:52.696Z,94363
2018-02-11T23:16:20.655Z,94366
2018-02-11T23:18:48.636Z,94373
2018-02-11T23:21:16.525Z,94370
2018-02-11T23:23:44.457Z,94368
2018-02-11T23:26:12.340Z,94363
2018-02-11T23:28:40.299Z,94363
2018-02-11T23:31:08.277Z,94370
2018-02-11T23:33:36.172Z,94377
2018-02-11T23:36:04.854Z,94382
2018-02-11T23:38:32.796Z,94380
2018-02-11T23:41:00.687Z,94380
2018-02-11T23:43:30.152Z,94384
2018-02-11T23:45:58.047Z,94376
2018-02-11T23:48:25.996Z,94379
2018-02-11T23:50:54.020Z,94389
2018-02-11T23:53:22.756Z,94392
2018-02-11T23:55:50.609Z,94388
2018-02-11T23:58:18.583Z,94396
